createdAt,value
2023-02-03T00:00:12.196Z,31.88
2023-02-03T00:02:39.245Z,38.58
2023-02-03T00:05:06.308Z,27.48
2023-02-03T00:07:32.831Z,42.70
2023-02-03T00:09:59.329Z,32.70
2023-02-03T00:12:25.964Z,25.92
2023-02-03T00:14:52.452Z,35.30
2023-02-03T00:17:18.989Z,28.33
2023-02-03T00:19:45.559Z,32.28
2023-02-03T00:22:12.244Z,38.13
2023-02-03T00:24:39.240Z,32.03
2023-02-03T00:27:06.179Z,30.07
2023-02-03T00:29:32.922Z,28.88
2023-02-03T00:31:59.526Z,35.85
2023-02-03T00:34:30.327Z,29.77
2023-02-03T00:36:57.812Z,36.33
2023-02-03T00:39:24.382Z,37.50
2023-02-03T00:41:50.845Z,29.75
2023-02-03T00:44:17.365Z,42.50
2023-02-03T00:46:43.848Z,31.25
2023-02-03T00:49:10.539Z,33.90
2023-02-03T00:51:37.046Z,35.97
2023-02-03T00:54:03.575Z,31.07
2023-02-03T00:56:30.199Z,28.52
2023-02-03T00:58:56.768Z,26.33
2023-02-03T01:01:23.389Z,27.33
2023-02-03T01:03:50.144Z,29.85
2023-02-03T01:06:19.954Z,31.53
2023-02-03T01:08:46.810Z,24.57
2023-02-03T01:11:17.266Z,29.30
2023-02-03T01:13:44.183Z,27.10
2023-02-03T01:16:13.122Z,25.67
2023-02-03T01:18:40.846Z,24.50
2023-02-03T01:21:07.414Z,31.83
2023-02-03T01:23:35.088Z,27.80
2023-02-03T01:26:21.968Z,39.80
2023-02-03T01:28:53.946Z,32.43
2023-02-03T01:31:27.106Z,27.80
2023-02-03T01:33:54.721Z,31.77
2023-02-03T01:36:23.407Z,33.37
2023-02-03T01:38:50.227Z,28.90
2023-02-03T01:41:20.461Z,33.67
2023-02-03T01:43:52.448Z,30.97
2023-02-03T01:46:18.895Z,25.93
2023-02-03T01:48:45.508Z,34.67
2023-02-03T01:51:11.999Z,26.87
2023-02-03T01:53:39.284Z,26.60
2023-02-03T01:56:06.742Z,28.83
2023-02-03T01:58:38.527Z,50.73
2023-02-03T02:01:05.391Z,29.13
2023-02-03T02:03:37.922Z,34.23
2023-02-03T02:06:10.337Z,30.03
2023-02-03T02:08:38.723Z,22.30
2023-02-03T02:11:07.092Z,29.17
2023-02-03T02:13:35.122Z,31.90
2023-02-03T02:16:16.874Z,29.73
2023-02-03T02:19:09.234Z,26.10
2023-02-03T02:22:02.792Z,28.93
2023-02-03T02:24:32.339Z,23.47
2023-02-03T02:27:35.877Z,29.30
2023-02-03T02:30:05.326Z,25.67
2023-02-03T02:32:45.177Z,21.53
2023-02-03T02:35:20.001Z,22.90
2023-02-03T02:38:07.510Z,25.30
2023-02-03T02:41:10.782Z,20.43
2023-02-03T02:43:40.182Z,25.40
2023-02-03T02:46:16.162Z,20.63
2023-02-03T02:48:58.162Z,25.13
2023-02-03T02:51:24.991Z,25.03
2023-02-03T02:54:02.573Z,25.03
2023-02-03T02:56:31.696Z,19.90
2023-02-03T02:59:01.648Z,25.40
2023-02-03T03:01:28.174Z,28.43
2023-02-03T03:03:56.227Z,24.57
2023-02-03T03:06:38.055Z,24.33
2023-02-03T03:09:25.561Z,24.07
2023-02-03T03:12:00.544Z,26.13
2023-02-03T03:14:30.553Z,33.30
2023-02-03T03:17:03.022Z,29.50
2023-02-03T03:19:41.607Z,30.87
2023-02-03T03:22:13.439Z,22.20
2023-02-03T03:24:46.076Z,32.47
2023-02-03T03:27:20.734Z,27.00
2023-02-03T03:30:00.280Z,26.25
2023-02-03T03:32:28.191Z,19.73
2023-02-03T03:34:55.574Z,23.23
2023-02-03T03:37:35.754Z,20.90
2023-02-03T03:40:20.494Z,24.00
2023-02-03T03:42:55.822Z,28.17
2023-02-03T03:45:32.256Z,23.20
2023-02-03T03:48:19.647Z,26.03
2023-02-03T03:50:51.534Z,24.07
2023-02-03T03:53:20.090Z,20.37
2023-02-03T03:55:52.623Z,24.70
2023-02-03T03:58:30.939Z,22.80
2023-02-03T04:01:04.027Z,22.80
2023-02-03T04:03:35.461Z,23.43
2023-02-03T04:06:02.165Z,29.23
2023-02-03T04:08:28.694Z,22.90
2023-02-03T04:10:55.185Z,23.73
2023-02-03T04:13:22.149Z,23.97
2023-02-03T04:15:48.705Z,23.27
2023-02-03T04:18:16.612Z,24.23
2023-02-03T04:20:43.201Z,24.63
2023-02-03T04:23:10.475Z,19.57
2023-02-03T04:25:36.976Z,21.60
2023-02-03T04:28:03.888Z,30.70
2023-02-03T04:30:30.501Z,21.70
2023-02-03T04:32:57.232Z,24.20
2023-02-03T04:35:23.953Z,23.80
2023-02-03T04:37:50.571Z,22.90
2023-02-03T04:40:17.490Z,20.40
2023-02-03T04:42:44.045Z,18.43
2023-02-03T04:45:11.696Z,29.17
2023-02-03T04:47:39.478Z,20.60
2023-02-03T04:50:06.486Z,25.40
2023-02-03T04:52:33.253Z,27.63
2023-02-03T04:54:59.836Z,24.90
2023-02-03T04:57:26.356Z,22.57
2023-02-03T04:59:53.157Z,26.07
2023-02-03T05:02:19.963Z,22.20
2023-02-03T05:04:46.472Z,25.67
2023-02-03T05:07:13.005Z,20.97
2023-02-03T05:09:39.497Z,19.33
2023-02-03T05:12:06.275Z,22.03
2023-02-03T05:14:32.796Z,25.50
2023-02-03T05:16:59.283Z,20.97
2023-02-03T05:19:26.091Z,22.93
2023-02-03T05:21:52.713Z,19.37
2023-02-03T05:24:19.215Z,16.60
2023-02-03T05:26:45.708Z,28.13
2023-02-03T05:29:12.198Z,22.13
2023-02-03T05:31:38.776Z,22.37
2023-02-03T05:34:05.336Z,18.37
2023-02-03T05:36:31.896Z,20.90
2023-02-03T05:38:58.977Z,21.83
2023-02-03T05:41:44.001Z,24.83
2023-02-03T05:44:10.466Z,16.92
2023-02-03T05:46:36.910Z,22.20
2023-02-03T05:49:03.505Z,25.87
2023-02-03T05:51:30.153Z,20.40
2023-02-03T05:53:57.363Z,21.87
2023-02-03T05:56:23.908Z,25.43
2023-02-03T05:58:53.271Z,21.40
2023-02-03T06:01:20.074Z,30.63
2023-02-03T06:03:47.358Z,17.50
2023-02-03T06:06:14.564Z,24.30
2023-02-03T06:08:41.227Z,20.97
2023-02-03T06:11:07.786Z,25.60
2023-02-03T06:13:34.531Z,27.97
2023-02-03T06:16:01.117Z,27.03
2023-02-03T06:18:27.851Z,25.53
2023-02-03T06:20:54.369Z,19.33
2023-02-03T06:23:21.011Z,22.77
2023-02-03T06:25:51.674Z,18.83
2023-02-03T06:28:18.747Z,20.80
2023-02-03T06:30:45.445Z,22.67
2023-02-03T06:33:12.132Z,15.70
2023-02-03T06:35:38.672Z,17.93
2023-02-03T06:38:05.346Z,25.57
2023-02-03T06:40:31.881Z,23.27
2023-02-03T06:42:58.634Z,24.67
2023-02-03T06:45:25.854Z,21.63
2023-02-03T06:47:52.408Z,21.67
2023-02-03T06:50:19.139Z,26.20
2023-02-03T06:52:45.704Z,19.57
2023-02-03T06:55:12.473Z,24.60
2023-02-03T06:57:47.026Z,30.10
2023-02-03T07:00:18.628Z,20.52
2023-02-03T07:02:46.531Z,32.37
2023-02-03T07:05:13.207Z,38.97
2023-02-03T07:07:39.777Z,21.97
2023-02-03T07:10:06.800Z,21.87
2023-02-03T07:12:33.371Z,26.27
2023-02-03T07:15:00.498Z,26.63
2023-02-03T07:17:26.995Z,33.33
2023-02-03T07:19:53.533Z,24.80
2023-02-03T07:22:20.255Z,27.90
2023-02-03T07:24:46.853Z,26.63
2023-02-03T07:27:13.358Z,30.73
2023-02-03T07:29:39.874Z,33.30
2023-02-03T07:32:06.532Z,26.93
2023-02-03T07:34:33.530Z,35.57
2023-02-03T07:37:00.003Z,27.70
2023-02-03T07:39:26.580Z,32.17
2023-02-03T07:41:53.218Z,23.40
2023-02-03T07:44:19.690Z,23.10
2023-02-03T07:46:46.255Z,28.50
2023-02-03T07:49:13.335Z,24.70
2023-02-03T07:51:40.221Z,20.70
2023-02-03T07:54:06.963Z,21.20
2023-02-03T07:56:33.911Z,24.17
2023-02-03T07:59:00.777Z,20.57
2023-02-03T08:01:27.827Z,25.50
2023-02-03T08:03:55.265Z,35.20
2023-02-03T08:06:22.160Z,22.83
2023-02-03T08:08:48.722Z,20.47
2023-02-03T08:11:15.222Z,22.10
2023-02-03T08:13:41.845Z,27.50
2023-02-03T08:16:08.639Z,31.80
2023-02-03T08:18:35.209Z,23.00
2023-02-03T08:21:03.845Z,24.00
2023-02-03T08:23:30.859Z,28.37
2023-02-03T08:25:57.381Z,23.93
2023-02-03T08:28:23.961Z,20.07
2023-02-03T08:30:51.001Z,19.83
2023-02-03T08:33:17.603Z,26.60
2023-02-03T08:35:49.518Z,23.17
2023-02-03T08:38:16.572Z,27.40
2023-02-03T08:40:43.317Z,26.40
2023-02-03T08:43:09.989Z,22.57
2023-02-03T08:45:36.503Z,23.93
2023-02-03T08:48:03.084Z,28.90
2023-02-03T08:50:29.996Z,20.73
2023-02-03T08:52:56.696Z,23.40
2023-02-03T08:55:23.206Z,20.90
2023-02-03T08:57:49.672Z,33.03
2023-02-03T09:00:16.564Z,29.80
2023-02-03T09:02:43.137Z,27.93
2023-02-03T09:05:10.062Z,28.40
2023-02-03T09:07:37.086Z,32.57
2023-02-03T09:10:04.133Z,47.27
2023-02-03T09:12:30.607Z,32.77
2023-02-03T09:14:57.213Z,22.87
2023-02-03T09:17:23.774Z,23.90
2023-02-03T09:19:50.373Z,34.57
2023-02-03T09:22:16.940Z,29.60
2023-02-03T09:24:43.713Z,28.27
2023-02-03T09:27:10.283Z,27.87
2023-02-03T09:29:36.803Z,27.70
2023-02-03T09:32:07.874Z,25.73
2023-02-03T09:34:34.571Z,27.27
2023-02-03T09:37:01.139Z,33.53
2023-02-03T09:39:27.658Z,28.77
2023-02-03T09:42:08.519Z,28.63
2023-02-03T09:44:47.165Z,23.23
2023-02-03T09:47:28.323Z,31.97
2023-02-03T09:50:05.398Z,35.87
2023-02-03T09:52:39.746Z,20.07
2023-02-03T09:55:18.119Z,35.67
2023-02-03T09:57:51.505Z,68.30
2023-02-03T10:00:25.557Z,28.77
2023-02-03T10:02:59.841Z,42.22
2023-02-03T10:06:03.461Z,23.63
2023-02-03T10:09:07.674Z,30.03
2023-02-03T10:12:08.990Z,18.30
2023-02-03T10:15:23.575Z,22.60
2023-02-03T10:18:12.786Z,29.80
2023-02-03T10:20:50.817Z,29.35
2023-02-03T10:23:24.256Z,31.27
2023-02-03T10:25:59.061Z,29.13
2023-02-03T10:28:32.931Z,27.98
2023-02-03T10:31:01.754Z,30.65
2023-02-03T10:33:30.986Z,24.25
2023-02-03T10:36:22.130Z,30.52
2023-02-03T10:38:48.606Z,22.05
2023-02-03T10:41:17.853Z,22.13
2023-02-03T10:43:48.830Z,27.17
2023-02-03T10:46:17.384Z,22.27
2023-02-03T10:48:44.473Z,23.98
2023-02-03T10:51:36.443Z,25.27
2023-02-03T10:54:03.063Z,20.10
2023-02-03T10:56:37.120Z,20.50
2023-02-03T10:59:04.722Z,26.52
2023-02-03T11:01:31.250Z,18.70
2023-02-03T11:04:03.184Z,16.48
2023-02-03T11:06:31.515Z,19.83
2023-02-03T11:08:58.976Z,16.25
2023-02-03T11:11:25.557Z,20.70
2023-02-03T11:14:04.178Z,18.05
2023-02-03T11:16:33.238Z,31.92
2023-02-03T11:19:10.372Z,22.52
2023-02-03T11:21:42.875Z,28.38
2023-02-03T11:24:18.362Z,16.08
2023-02-03T11:26:58.714Z,26.58
2023-02-03T11:29:28.562Z,21.35
2023-02-03T11:31:57.704Z,26.73
2023-02-03T11:34:36.841Z,23.38
2023-02-03T11:37:28.204Z,16.17
2023-02-03T11:40:15.078Z,20.92
2023-02-03T11:42:58.756Z,15.98
2023-02-03T11:45:42.149Z,21.63
2023-02-03T11:48:14.751Z,18.50
2023-02-03T11:51:28.880Z,23.00
2023-02-03T11:54:13.678Z,15.13
2023-02-03T11:56:51.743Z,19.73
2023-02-03T11:59:39.697Z,16.27
2023-02-03T12:02:40.921Z,15.68
2023-02-03T12:05:45.758Z,11.63
2023-02-03T12:08:18.015Z,22.10
2023-02-03T12:11:06.248Z,16.20
2023-02-03T12:13:44.760Z,16.98
2023-02-03T12:16:21.088Z,18.88
2023-02-03T12:19:30.921Z,19.63
2023-02-03T12:22:37.784Z,15.30
2023-02-03T12:25:30.375Z,15.88
2023-02-03T12:27:59.766Z,12.57
2023-02-03T12:30:35.325Z,19.98
2023-02-03T12:33:11.886Z,10.93
2023-02-03T12:35:46.876Z,23.85
2023-02-03T12:38:17.061Z,13.55
2023-02-03T12:40:55.276Z,14.82
2023-02-03T12:43:38.558Z,10.82
2023-02-03T12:46:16.540Z,18.30
2023-02-03T12:49:10.746Z,19.27
2023-02-03T12:51:51.032Z,17.70
2023-02-03T12:54:53.676Z,14.80
2023-02-03T12:57:46.818Z,14.27
2023-02-03T13:00:27.209Z,14.27
2023-02-03T13:03:26.608Z,11.57
2023-02-03T13:06:15.190Z,13.80
2023-02-03T13:08:54.119Z,11.68
2023-02-03T13:11:48.967Z,14.60
2023-02-03T13:14:37.207Z,16.92
2023-02-03T13:17:27.787Z,10.68
2023-02-03T13:20:19.238Z,15.98
2023-02-03T13:22:46.149Z,15.52
2023-02-03T13:25:23.094Z,14.10
2023-02-03T13:28:19.842Z,12.25
2023-02-03T13:31:13.392Z,15.63
2023-02-03T13:33:54.707Z,14.30
2023-02-03T13:36:36.585Z,20.05
2023-02-03T13:39:21.829Z,13.82
2023-02-03T13:41:55.345Z,23.27
2023-02-03T13:44:28.340Z,16.27
2023-02-03T13:46:58.359Z,14.98
2023-02-03T13:49:34.024Z,9.43
2023-02-03T13:52:01.079Z,15.02
2023-02-03T13:54:37.706Z,17.42
2023-02-03T13:57:19.867Z,15.30
2023-02-03T13:59:48.443Z,22.75
2023-02-03T14:02:24.393Z,17.05
2023-02-03T14:04:56.271Z,17.80
2023-02-03T14:07:38.171Z,15.25
2023-02-03T14:10:13.804Z,15.18
2023-02-03T14:12:52.422Z,18.88
2023-02-03T14:15:30.265Z,18.13
2023-02-03T14:18:07.302Z,10.95
2023-02-03T14:20:48.977Z,12.70
2023-02-03T14:23:23.578Z,10.77
2023-02-03T14:25:56.051Z,17.10
2023-02-03T14:28:43.817Z,12.93
2023-02-03T14:31:25.131Z,18.05
2023-02-03T14:33:58.332Z,18.90
2023-02-03T14:36:30.807Z,11.05
2023-02-03T14:39:02.386Z,7.88
2023-02-03T14:41:45.444Z,9.75
2023-02-03T14:44:31.717Z,10.00
2023-02-03T14:47:30.872Z,13.40
2023-02-03T14:50:25.105Z,12.25
2023-02-03T14:53:16.000Z,10.30
2023-02-03T14:55:54.536Z,18.00
2023-02-03T14:58:36.787Z,12.98
2023-02-03T15:01:05.030Z,12.80
2023-02-03T15:03:31.650Z,12.02
2023-02-03T15:06:03.201Z,13.50
2023-02-03T15:08:48.989Z,13.68
2023-02-03T15:11:33.542Z,8.05
2023-02-03T15:14:27.519Z,11.52
2023-02-03T15:16:59.867Z,18.67
2023-02-03T15:19:35.720Z,12.77
2023-02-03T15:22:02.779Z,17.58
2023-02-03T15:24:36.772Z,16.92
2023-02-03T15:27:03.507Z,13.52
2023-02-03T15:29:32.464Z,34.85
2023-02-03T15:32:19.243Z,20.98
2023-02-03T15:34:49.130Z,30.45
2023-02-03T15:37:34.006Z,20.75
2023-02-03T15:40:05.291Z,17.75
2023-02-03T15:42:45.603Z,13.95
2023-02-03T15:45:25.448Z,12.38
2023-02-03T15:47:57.837Z,14.82
2023-02-03T15:50:34.157Z,11.73
2023-02-03T15:53:10.485Z,18.35
2023-02-03T15:55:43.150Z,9.27
2023-02-03T15:58:23.493Z,15.23
2023-02-03T16:00:54.060Z,12.73
2023-02-03T16:03:28.436Z,11.18
2023-02-03T16:05:55.336Z,19.23
2023-02-03T16:08:46.258Z,14.00
2023-02-03T16:11:31.070Z,16.63
2023-02-03T16:14:00.293Z,11.10
2023-02-03T16:16:29.691Z,13.98
2023-02-03T16:18:58.781Z,13.60
2023-02-03T16:21:52.934Z,16.38
2023-02-03T16:24:42.988Z,16.08
2023-02-03T16:27:44.351Z,11.63
2023-02-03T16:30:29.405Z,10.82
2023-02-03T16:36:31.625Z,14.15
2023-02-03T16:39:20.482Z,18.02
2023-02-03T16:42:05.869Z,9.02
2023-02-03T16:44:51.091Z,9.00
2023-02-03T16:47:43.304Z,15.40
2023-02-03T16:50:46.127Z,9.13
2023-02-03T16:53:15.763Z,12.40
2023-02-03T16:55:43.930Z,13.75
2023-02-03T16:58:12.610Z,10.43
2023-02-03T17:00:44.071Z,12.23
2023-02-03T17:03:13.239Z,16.00
2023-02-03T17:05:42.030Z,8.75
2023-02-03T17:08:09.047Z,16.10
2023-02-03T17:10:38.100Z,13.93
2023-02-03T17:13:05.478Z,13.70
2023-02-03T17:15:32.559Z,14.15
2023-02-03T17:17:59.187Z,15.25
2023-02-03T17:20:26.027Z,12.68
2023-02-03T17:22:54.412Z,13.07
2023-02-03T17:25:21.706Z,15.60
2023-02-03T17:27:48.649Z,19.92
2023-02-03T17:30:15.806Z,22.75
2023-02-03T17:32:42.403Z,18.90
2023-02-03T17:35:08.997Z,71.78
2023-02-03T17:37:35.818Z,51.65
2023-02-03T17:54:06.208Z,34.80
2023-02-03T17:56:35.668Z,15.82
2023-02-03T17:59:04.522Z,20.88
2023-02-03T18:01:31.823Z,17.85
2023-02-03T18:04:01.318Z,19.95
2023-02-03T18:06:29.946Z,16.90
2023-02-03T18:09:01.395Z,22.40
2023-02-03T18:11:30.257Z,20.10
2023-02-03T18:13:56.876Z,15.73
2023-02-03T18:16:26.556Z,19.15
2023-02-03T18:18:53.962Z,20.95
2023-02-03T18:21:22.759Z,21.23
2023-02-03T18:23:51.157Z,17.95
2023-02-03T18:26:19.485Z,21.55
2023-02-03T18:28:46.049Z,21.00
2023-02-03T18:31:15.680Z,19.25
2023-02-03T18:33:43.655Z,23.08
2023-02-03T18:36:12.790Z,19.83
2023-02-03T18:38:41.920Z,23.38
2023-02-03T18:41:23.253Z,17.40
2023-02-03T18:43:50.140Z,24.17
2023-02-03T18:46:19.670Z,32.50
2023-02-03T18:48:46.635Z,23.50
2023-02-03T18:51:16.556Z,26.20
2023-02-03T18:53:45.034Z,21.00
2023-02-03T18:56:35.767Z,45.28
2023-02-03T18:59:08.751Z,17.48
2023-02-03T19:01:36.475Z,26.33
2023-02-03T19:04:03.689Z,22.85
2023-02-03T19:06:32.386Z,56.50
2023-02-03T19:09:00.608Z,33.03
2023-02-03T19:11:27.208Z,20.33
2023-02-03T19:13:53.862Z,22.90
2023-02-03T19:16:20.446Z,21.77
2023-02-03T19:18:47.326Z,24.48
2023-02-03T19:21:14.434Z,24.30
2023-02-03T19:23:42.144Z,27.00
2023-02-03T19:26:09.960Z,34.22
2023-02-03T19:28:36.936Z,31.55
2023-02-03T19:31:08.800Z,35.05
2023-02-03T19:33:36.390Z,28.63
2023-02-03T19:36:04.695Z,29.30
2023-02-03T19:38:31.408Z,30.55
2023-02-03T19:40:57.998Z,29.88
2023-02-03T19:43:24.798Z,30.33
2023-02-03T19:45:51.749Z,37.35
2023-02-03T19:48:19.139Z,37.78
2023-02-03T19:50:48.734Z,33.67
2023-02-03T19:53:16.797Z,40.50
2023-02-03T19:55:44.510Z,40.35
2023-02-03T19:58:12.479Z,30.13
2023-02-03T20:00:40.085Z,35.35
2023-02-03T20:03:06.915Z,38.97
2023-02-03T20:05:34.512Z,37.28
2023-02-03T20:08:01.199Z,32.88
2023-02-03T20:10:28.241Z,32.10
2023-02-03T20:12:55.220Z,29.15
2023-02-03T20:15:22.196Z,35.78
2023-02-03T20:17:48.767Z,41.83
2023-02-03T20:20:17.390Z,35.85
2023-02-03T20:22:45.191Z,35.80
2023-02-03T20:25:11.712Z,33.75
2023-02-03T20:27:38.277Z,34.53
2023-02-03T20:30:05.128Z,27.92
2023-02-03T20:32:31.598Z,32.40
2023-02-03T20:34:59.185Z,31.95
2023-02-03T20:37:25.905Z,33.75
2023-02-03T20:39:52.494Z,29.83
2023-02-03T20:42:19.060Z,37.47
2023-02-03T20:44:45.828Z,34.00
2023-02-03T20:47:14.636Z,32.65
2023-02-03T20:49:41.434Z,42.30
2023-02-03T20:52:19.789Z,37.13
2023-02-03T20:54:46.370Z,32.13
2023-02-03T20:57:18.251Z,32.55
2023-02-03T20:59:45.927Z,25.50
2023-02-03T21:02:31.242Z,30.88
2023-02-03T21:04:58.818Z,30.77
2023-02-03T21:07:29.185Z,30.17
2023-02-03T21:09:57.077Z,28.95
2023-02-03T21:12:24.471Z,32.60
2023-02-03T21:14:53.151Z,34.92
2023-02-03T21:17:22.393Z,28.20
2023-02-03T21:19:49.336Z,37.83
2023-02-03T21:22:19.949Z,34.65
2023-02-03T21:24:57.807Z,34.30
2023-02-03T21:27:28.730Z,30.42
2023-02-03T21:29:57.633Z,30.42
2023-02-03T21:32:36.436Z,30.05
2023-02-03T21:35:03.052Z,35.83
2023-02-03T21:37:41.295Z,32.42
2023-02-03T21:40:29.432Z,34.08
2023-02-03T21:42:56.687Z,36.88
2023-02-03T21:45:28.515Z,24.35
2023-02-03T21:47:57.870Z,35.28
2023-02-03T21:50:40.794Z,33.67
2023-02-03T21:53:10.498Z,40.42
2023-02-03T21:55:38.456Z,33.58
2023-02-03T21:58:31.398Z,33.75
2023-02-03T22:01:00.247Z,34.05
2023-02-03T22:03:31.168Z,38.00
2023-02-03T22:06:04.682Z,32.50
2023-02-03T22:08:34.684Z,31.90
2023-02-03T22:11:01.138Z,41.85
2023-02-03T22:13:29.489Z,40.50
2023-02-03T22:15:56.886Z,38.03
2023-02-03T22:18:23.744Z,30.45
2023-02-03T22:20:50.829Z,36.90
2023-02-03T22:23:17.469Z,38.47
2023-02-03T22:25:43.940Z,39.80
2023-02-03T22:28:10.468Z,40.28
2023-02-03T22:30:37.224Z,41.55
2023-02-03T22:33:03.912Z,38.83
2023-02-03T22:35:30.545Z,36.67
2023-02-03T22:37:57.701Z,40.92
2023-02-03T22:40:24.814Z,41.08
2023-02-03T22:42:51.965Z,32.88
2023-02-03T22:45:19.625Z,35.15
2023-02-03T22:47:46.923Z,44.13
2023-02-03T22:50:15.456Z,36.35
2023-02-03T22:52:43.108Z,37.95
2023-02-03T22:55:10.276Z,33.17
2023-02-03T22:57:38.135Z,35.47
2023-02-03T23:00:11.000Z,41.28
2023-02-03T23:02:40.964Z,41.58
2023-02-03T23:05:08.982Z,40.28
2023-02-03T23:07:37.108Z,28.27
2023-02-03T23:10:05.240Z,32.42
2023-02-03T23:12:31.817Z,33.35
2023-02-03T23:14:58.602Z,29.10
2023-02-03T23:17:25.279Z,29.27
2023-02-03T23:19:51.761Z,32.10
2023-02-03T23:22:19.004Z,31.97
2023-02-03T23:24:45.554Z,29.90
2023-02-03T23:27:12.103Z,35.28
2023-02-03T23:29:39.187Z,39.17
2023-02-03T23:32:06.687Z,32.38
2023-02-03T23:34:51.946Z,30.30
2023-02-03T23:37:19.167Z,31.75
2023-02-03T23:39:45.707Z,34.42
2023-02-03T23:42:12.201Z,30.55
2023-02-03T23:44:38.729Z,37.13
2023-02-03T23:47:05.336Z,31.63
2023-02-03T23:49:31.888Z,36.47
2023-02-03T23:51:58.907Z,33.83
2023-02-03T23:54:25.790Z,30.00
2023-02-03T23:56:52.795Z,27.92
2023-02-03T23:59:20.296Z,29.27
